sensor_id;sensor_type;location;lat;lon;timestamp;P1;durP1;ratioP1;P2;durP2;ratioP2
23300;SDS011;11819;51.394;12.340;2023-03-14T00:01:29;2.47;;;1.42;;
23300;SDS011;11819;51.394;12.340;2023-03-14T00:03:54;3.38;;;1.70;;
23300;SDS011;11819;51.394;12.340;2023-03-14T00:06:20;2.90;;;1.77;;
23300;SDS011;11819;51.394;12.340;2023-03-14T00:08:46;4.28;;;2.03;;
23300;SDS011;11819;51.394;12.340;2023-03-14T00:11:13;2.05;;;1.60;;
23300;SDS011;11819;51.394;12.340;2023-03-14T00:13:40;3.10;;;1.80;;
23300;SDS011;11819;51.394;12.340;2023-03-14T00:16:13;3.28;;;1.95;;
23300;SDS011;11819;51.394;12.340;2023-03-14T00:18:39;2.63;;;1.58;;
23300;SDS011;11819;51.394;12.340;2023-03-14T00:21:06;3.85;;;1.90;;
23300;SDS011;11819;51.394;12.340;2023-03-14T00:23:33;2.25;;;1.50;;
23300;SDS011;11819;51.394;12.340;2023-03-14T00:26:01;3.42;;;1.80;;
23300;SDS011;11819;51.394;12.340;2023-03-14T00:28:28;3.10;;;1.75;;
23300;SDS011;11819;51.394;12.340;2023-03-14T00:30:53;1.40;;;1.30;;
23300;SDS011;11819;51.394;12.340;2023-03-14T00:33:20;3.17;;;1.88;;
23300;SDS011;11819;51.394;12.340;2023-03-14T00:35:54;2.78;;;1.70;;
23300;SDS011;11819;51.394;12.340;2023-03-14T00:38:26;3.20;;;1.70;;
23300;SDS011;11819;51.394;12.340;2023-03-14T00:40:53;3.55;;;1.75;;
23300;SDS011;11819;51.394;12.340;2023-03-14T00:43:19;3.67;;;1.52;;
23300;SDS011;11819;51.394;12.340;2023-03-14T00:45:49;4.38;;;1.70;;
23300;SDS011;11819;51.394;12.340;2023-03-14T00:48:16;4.45;;;1.70;;
23300;SDS011;11819;51.394;12.340;2023-03-14T00:50:43;3.28;;;1.90;;
23300;SDS011;11819;51.394;12.340;2023-03-14T00:53:10;2.95;;;1.70;;
23300;SDS011;11819;51.394;12.340;2023-03-14T00:55:37;2.47;;;1.50;;
23300;SDS011;11819;51.394;12.340;2023-03-14T00:58:07;2.08;;;1.40;;
23300;SDS011;11819;51.394;12.340;2023-03-14T01:00:34;3.28;;;1.60;;
23300;SDS011;11819;51.394;12.340;2023-03-14T01:03:00;2.97;;;1.83;;
23300;SDS011;11819;51.394;12.340;2023-03-14T01:05:26;4.03;;;1.60;;
23300;SDS011;11819;51.394;12.340;2023-03-14T01:07:52;1.60;;;1.23;;
23300;SDS011;11819;51.394;12.340;2023-03-14T01:10:18;2.25;;;1.48;;
23300;SDS011;11819;51.394;12.340;2023-03-14T01:12:44;2.08;;;1.02;;
23300;SDS011;11819;51.394;12.340;2023-03-14T01:15:09;2.85;;;1.90;;
23300;SDS011;11819;51.394;12.340;2023-03-14T01:17:35;2.33;;;1.20;;
23300;SDS011;11819;51.394;12.340;2023-03-14T01:20:04;2.55;;;1.40;;
23300;SDS011;11819;51.394;12.340;2023-03-14T01:22:31;3.35;;;1.67;;
23300;SDS011;11819;51.394;12.340;2023-03-14T01:24:56;1.52;;;0.90;;
23300;SDS011;11819;51.394;12.340;2023-03-14T01:27:22;1.30;;;1.05;;
23300;SDS011;11819;51.394;12.340;2023-03-14T01:29:47;2.67;;;1.38;;
23300;SDS011;11819;51.394;12.340;2023-03-14T01:32:15;2.35;;;1.20;;
23300;SDS011;11819;51.394;12.340;2023-03-14T01:34:41;1.50;;;0.98;;
23300;SDS011;11819;51.394;12.340;2023-03-14T01:37:07;1.27;;;0.70;;
23300;SDS011;11819;51.394;12.340;2023-03-14T01:39:33;3.70;;;1.00;;
23300;SDS011;11819;51.394;12.340;2023-03-14T01:42:02;2.75;;;1.30;;
23300;SDS011;11819;51.394;12.340;2023-03-14T01:44:28;1.63;;;1.30;;
23300;SDS011;11819;51.394;12.340;2023-03-14T01:47:10;1.50;;;1.02;;
23300;SDS011;11819;51.394;12.340;2023-03-14T01:49:36;0.88;;;0.75;;
23300;SDS011;11819;51.394;12.340;2023-03-14T01:52:19;1.67;;;1.00;;
23300;SDS011;11819;51.394;12.340;2023-03-14T01:54:53;2.15;;;1.17;;
23300;SDS011;11819;51.394;12.340;2023-03-14T01:57:25;1.50;;;1.00;;
23300;SDS011;11819;51.394;12.340;2023-03-14T02:00:05;0.77;;;0.77;;
23300;SDS011;11819;51.394;12.340;2023-03-14T02:02:46;2.53;;;1.17;;
23300;SDS011;11819;51.394;12.340;2023-03-14T02:05:19;6.22;;;1.23;;
23300;SDS011;11819;51.394;12.340;2023-03-14T02:07:55;1.60;;;1.02;;
23300;SDS011;11819;51.394;12.340;2023-03-14T02:10:27;1.45;;;0.88;;
23300;SDS011;11819;51.394;12.340;2023-03-14T02:12:59;2.80;;;1.85;;
23300;SDS011;11819;51.394;12.340;2023-03-14T02:15:36;1.85;;;1.10;;
23300;SDS011;11819;51.394;12.340;2023-03-14T02:18:10;3.22;;;1.30;;
23300;SDS011;11819;51.394;12.340;2023-03-14T02:20:48;1.42;;;1.05;;
23300;SDS011;11819;51.394;12.340;2023-03-14T02:23:24;2.63;;;1.23;;
23300;SDS011;11819;51.394;12.340;2023-03-14T02:26:03;2.00;;;1.20;;
23300;SDS011;11819;51.394;12.340;2023-03-14T02:28:35;1.30;;;1.08;;
23300;SDS011;11819;51.394;12.340;2023-03-14T02:31:02;0.98;;;0.88;;
23300;SDS011;11819;51.394;12.340;2023-03-14T02:33:31;1.75;;;1.10;;
23300;SDS011;11819;51.394;12.340;2023-03-14T02:35:58;1.20;;;1.10;;
23300;SDS011;11819;51.394;12.340;2023-03-14T02:38:28;3.45;;;1.10;;
23300;SDS011;11819;51.394;12.340;2023-03-14T02:41:18;1.85;;;1.20;;
23300;SDS011;11819;51.394;12.340;2023-03-14T02:43:50;1.40;;;1.10;;
23300;SDS011;11819;51.394;12.340;2023-03-14T02:46:16;1.27;;;0.93;;
23300;SDS011;11819;51.394;12.340;2023-03-14T02:51:22;1.40;;;1.20;;
23300;SDS011;11819;51.394;12.340;2023-03-14T02:53:50;1.58;;;1.15;;
23300;SDS011;11819;51.394;12.340;2023-03-14T02:56:19;2.03;;;1.23;;
23300;SDS011;11819;51.394;12.340;2023-03-14T02:58:44;1.55;;;1.02;;
23300;SDS011;11819;51.394;12.340;2023-03-14T03:01:24;1.48;;;1.05;;
23300;SDS011;11819;51.394;12.340;2023-03-14T03:03:50;1.27;;;1.00;;
23300;SDS011;11819;51.394;12.340;2023-03-14T03:06:18;2.47;;;1.48;;
23300;SDS011;11819;51.394;12.340;2023-03-14T03:08:44;1.67;;;0.85;;
23300;SDS011;11819;51.394;12.340;2023-03-14T03:11:10;1.52;;;1.05;;
23300;SDS011;11819;51.394;12.340;2023-03-14T03:13:36;2.40;;;1.00;;
23300;SDS011;11819;51.394;12.340;2023-03-14T03:18:33;2.70;;;1.55;;
23300;SDS011;11819;51.394;12.340;2023-03-14T03:21:00;2.10;;;1.00;;
23300;SDS011;11819;51.394;12.340;2023-03-14T03:23:26;1.80;;;1.25;;
23300;SDS011;11819;51.394;12.340;2023-03-14T03:25:52;1.88;;;1.30;;
23300;SDS011;11819;51.394;12.340;2023-03-14T03:28:18;2.70;;;1.17;;
23300;SDS011;11819;51.394;12.340;2023-03-14T03:30:44;1.65;;;1.20;;
23300;SDS011;11819;51.394;12.340;2023-03-14T03:33:11;1.90;;;1.23;;
23300;SDS011;11819;51.394;12.340;2023-03-14T03:35:44;1.95;;;0.90;;
23300;SDS011;11819;51.394;12.340;2023-03-14T03:38:11;2.33;;;1.30;;
23300;SDS011;11819;51.394;12.340;2023-03-14T03:40:37;1.80;;;1.10;;
23300;SDS011;11819;51.394;12.340;2023-03-14T03:43:04;2.58;;;1.30;;
23300;SDS011;11819;51.394;12.340;2023-03-14T03:45:30;1.30;;;1.10;;
23300;SDS011;11819;51.394;12.340;2023-03-14T03:47:56;1.80;;;1.30;;
23300;SDS011;11819;51.394;12.340;2023-03-14T03:50:22;3.00;;;1.25;;
23300;SDS011;11819;51.394;12.340;2023-03-14T03:52:48;3.72;;;1.70;;
23300;SDS011;11819;51.394;12.340;2023-03-14T03:55:14;2.60;;;1.17;;
23300;SDS011;11819;51.394;12.340;2023-03-14T03:57:39;2.92;;;1.30;;
23300;SDS011;11819;51.394;12.340;2023-03-14T04:00:05;2.25;;;1.17;;
23300;SDS011;11819;51.394;12.340;2023-03-14T04:02:39;1.40;;;1.15;;
23300;SDS011;11819;51.394;12.340;2023-03-14T04:05:07;3.65;;;1.35;;
23300;SDS011;11819;51.394;12.340;2023-03-14T04:07:35;1.77;;;1.27;;
23300;SDS011;11819;51.394;12.340;2023-03-14T04:10:01;3.20;;;1.10;;
23300;SDS011;11819;51.394;12.340;2023-03-14T04:12:37;4.05;;;1.27;;
23300;SDS011;11819;51.394;12.340;2023-03-14T04:15:07;2.42;;;1.38;;
23300;SDS011;11819;51.394;12.340;2023-03-14T04:17:35;4.15;;;1.50;;
23300;SDS011;11819;51.394;12.340;2023-03-14T04:20:01;3.65;;;1.60;;
23300;SDS011;11819;51.394;12.340;2023-03-14T04:22:33;3.53;;;1.40;;
23300;SDS011;11819;51.394;12.340;2023-03-14T04:24:59;1.60;;;1.30;;
23300;SDS011;11819;51.394;12.340;2023-03-14T04:27:27;3.33;;;1.50;;
23300;SDS011;11819;51.394;12.340;2023-03-14T04:29:54;2.47;;;1.40;;
23300;SDS011;11819;51.394;12.340;2023-03-14T04:32:33;2.53;;;1.58;;
23300;SDS011;11819;51.394;12.340;2023-03-14T04:34:59;2.35;;;1.23;;
23300;SDS011;11819;51.394;12.340;2023-03-14T04:37:26;4.25;;;1.48;;
23300;SDS011;11819;51.394;12.340;2023-03-14T04:39:53;4.35;;;1.40;;
23300;SDS011;11819;51.394;12.340;2023-03-14T04:42:24;6.30;;;1.90;;
23300;SDS011;11819;51.394;12.340;2023-03-14T04:44:50;2.72;;;1.65;;
23300;SDS011;11819;51.394;12.340;2023-03-14T04:47:18;2.88;;;1.70;;
23300;SDS011;11819;51.394;12.340;2023-03-14T04:49:46;3.33;;;1.50;;
23300;SDS011;11819;51.394;12.340;2023-03-14T04:52:13;3.78;;;1.70;;
23300;SDS011;11819;51.394;12.340;2023-03-14T04:54:40;4.10;;;1.50;;
23300;SDS011;11819;51.394;12.340;2023-03-14T04:57:06;3.67;;;1.40;;
23300;SDS011;11819;51.394;12.340;2023-03-14T04:59:34;4.45;;;1.65;;
23300;SDS011;11819;51.394;12.340;2023-03-14T05:02:11;3.85;;;1.63;;
23300;SDS011;11819;51.394;12.340;2023-03-14T05:04:47;3.70;;;1.70;;
23300;SDS011;11819;51.394;12.340;2023-03-14T05:07:39;5.28;;;1.70;;
23300;SDS011;11819;51.394;12.340;2023-03-14T05:10:14;4.38;;;2.10;;
23300;SDS011;11819;51.394;12.340;2023-03-14T05:15:09;3.17;;;1.80;;
23300;SDS011;11819;51.394;12.340;2023-03-14T05:17:55;6.47;;;2.05;;
23300;SDS011;11819;51.394;12.340;2023-03-14T05:20:39;2.70;;;1.88;;
23300;SDS011;11819;51.394;12.340;2023-03-14T05:23:19;3.83;;;1.73;;
23300;SDS011;11819;51.394;12.340;2023-03-14T05:26:14;5.20;;;1.88;;
23300;SDS011;11819;51.394;12.340;2023-03-14T05:28:51;4.55;;;1.77;;
23300;SDS011;11819;51.394;12.340;2023-03-14T05:31:28;4.47;;;1.70;;
23300;SDS011;11819;51.394;12.340;2023-03-14T05:34:09;3.50;;;1.80;;
23300;SDS011;11819;51.394;12.340;2023-03-14T05:36:43;3.95;;;1.55;;
23300;SDS011;11819;51.394;12.340;2023-03-14T05:39:33;5.47;;;2.10;;
23300;SDS011;11819;51.394;12.340;2023-03-14T05:42:08;6.55;;;2.00;;
23300;SDS011;11819;51.394;12.340;2023-03-14T05:44:55;4.63;;;1.92;;
23300;SDS011;11819;51.394;12.340;2023-03-14T05:47:40;7.15;;;1.95;;
23300;SDS011;11819;51.394;12.340;2023-03-14T05:50:21;5.18;;;2.00;;
23300;SDS011;11819;51.394;12.340;2023-03-14T05:52:58;5.68;;;2.10;;
23300;SDS011;11819;51.394;12.340;2023-03-14T05:55:43;4.60;;;1.88;;
23300;SDS011;11819;51.394;12.340;2023-03-14T05:58:27;3.97;;;1.83;;
23300;SDS011;11819;51.394;12.340;2023-03-14T06:01:04;7.15;;;1.95;;
23300;SDS011;11819;51.394;12.340;2023-03-14T06:03:47;3.20;;;1.60;;
23300;SDS011;11819;51.394;12.340;2023-03-14T06:06:14;5.53;;;1.80;;
23300;SDS011;11819;51.394;12.340;2023-03-14T06:08:39;3.78;;;1.70;;
23300;SDS011;11819;51.394;12.340;2023-03-14T06:11:06;4.22;;;1.60;;
23300;SDS011;11819;51.394;12.340;2023-03-14T06:13:32;6.13;;;1.80;;
23300;SDS011;11819;51.394;12.340;2023-03-14T06:15:57;5.97;;;1.95;;
23300;SDS011;11819;51.394;12.340;2023-03-14T06:18:23;3.53;;;1.42;;
23300;SDS011;11819;51.394;12.340;2023-03-14T06:20:49;5.43;;;1.40;;
23300;SDS011;11819;51.394;12.340;2023-03-14T06:23:23;4.53;;;1.73;;
23300;SDS011;11819;51.394;12.340;2023-03-14T06:25:50;3.53;;;1.55;;
23300;SDS011;11819;51.394;12.340;2023-03-14T06:28:16;2.78;;;1.63;;
23300;SDS011;11819;51.394;12.340;2023-03-14T06:30:42;5.72;;;1.98;;
23300;SDS011;11819;51.394;12.340;2023-03-14T06:33:09;4.38;;;1.85;;
23300;SDS011;11819;51.394;12.340;2023-03-14T06:35:36;5.28;;;1.92;;
23300;SDS011;11819;51.394;12.340;2023-03-14T06:38:02;5.82;;;3.00;;
23300;SDS011;11819;51.394;12.340;2023-03-14T06:40:28;2.47;;;1.50;;
23300;SDS011;11819;51.394;12.340;2023-03-14T06:43:03;2.42;;;1.33;;
23300;SDS011;11819;51.394;12.340;2023-03-14T06:45:31;4.40;;;1.67;;
23300;SDS011;11819;51.394;12.340;2023-03-14T06:47:58;5.88;;;1.75;;
23300;SDS011;11819;51.394;12.340;2023-03-14T06:50:33;7.75;;;2.03;;
23300;SDS011;11819;51.394;12.340;2023-03-14T06:52:59;3.50;;;1.63;;
23300;SDS011;11819;51.394;12.340;2023-03-14T06:55:25;3.95;;;1.70;;
23300;SDS011;11819;51.394;12.340;2023-03-14T06:57:52;4.05;;;2.00;;
23300;SDS011;11819;51.394;12.340;2023-03-14T07:00:18;6.03;;;2.20;;
23300;SDS011;11819;51.394;12.340;2023-03-14T07:02:44;3.65;;;2.08;;
23300;SDS011;11819;51.394;12.340;2023-03-14T07:05:27;3.80;;;1.80;;
23300;SDS011;11819;51.394;12.340;2023-03-14T07:07:53;2.70;;;1.60;;
23300;SDS011;11819;51.394;12.340;2023-03-14T07:10:18;2.58;;;1.38;;
23300;SDS011;11819;51.394;12.340;2023-03-14T07:12:44;4.55;;;1.60;;
23300;SDS011;11819;51.394;12.340;2023-03-14T07:15:10;2.38;;;1.73;;
23300;SDS011;11819;51.394;12.340;2023-03-14T07:17:36;2.58;;;1.67;;
23300;SDS011;11819;51.394;12.340;2023-03-14T07:20:02;4.50;;;1.30;;
23300;SDS011;11819;51.394;12.340;2023-03-14T07:22:33;4.28;;;1.60;;
23300;SDS011;11819;51.394;12.340;2023-03-14T07:24:58;3.88;;;1.30;;
23300;SDS011;11819;51.394;12.340;2023-03-14T07:27:24;2.22;;;1.30;;
23300;SDS011;11819;51.394;12.340;2023-03-14T07:29:50;1.95;;;1.33;;
23300;SDS011;11819;51.394;12.340;2023-03-14T07:32:15;3.15;;;1.70;;
23300;SDS011;11819;51.394;12.340;2023-03-14T07:34:42;5.53;;;2.53;;
23300;SDS011;11819;51.394;12.340;2023-03-14T07:37:08;4.38;;;1.60;;
23300;SDS011;11819;51.394;12.340;2023-03-14T07:39:34;14.73;;;7.78;;
23300;SDS011;11819;51.394;12.340;2023-03-14T07:42:06;8.38;;;4.05;;
23300;SDS011;11819;51.394;12.340;2023-03-14T07:45:01;8.00;;;3.63;;
23300;SDS011;11819;51.394;12.340;2023-03-14T07:47:28;4.03;;;2.50;;
23300;SDS011;11819;51.394;12.340;2023-03-14T07:49:53;6.30;;;3.03;;
23300;SDS011;11819;51.394;12.340;2023-03-14T07:52:19;19.33;;;8.77;;
23300;SDS011;11819;51.394;12.340;2023-03-14T07:54:44;8.27;;;3.80;;
23300;SDS011;11819;51.394;12.340;2023-03-14T07:57:10;11.55;;;6.38;;
23300;SDS011;11819;51.394;12.340;2023-03-14T07:59:35;7.45;;;4.65;;
23300;SDS011;11819;51.394;12.340;2023-03-14T08:02:01;4.25;;;2.00;;
23300;SDS011;11819;51.394;12.340;2023-03-14T08:04:26;4.82;;;2.05;;
23300;SDS011;11819;51.394;12.340;2023-03-14T08:06:52;6.25;;;1.63;;
23300;SDS011;11819;51.394;12.340;2023-03-14T08:09:19;5.43;;;1.95;;
23300;SDS011;11819;51.394;12.340;2023-03-14T08:11:45;2.90;;;1.50;;
23300;SDS011;11819;51.394;12.340;2023-03-14T08:14:10;3.03;;;1.80;;
23300;SDS011;11819;51.394;12.340;2023-03-14T08:16:36;6.43;;;1.80;;
23300;SDS011;11819;51.394;12.340;2023-03-14T08:19:01;3.45;;;1.73;;
23300;SDS011;11819;51.394;12.340;2023-03-14T08:21:27;4.70;;;1.73;;
23300;SDS011;11819;51.394;12.340;2023-03-14T08:23:53;3.47;;;1.83;;
23300;SDS011;11819;51.394;12.340;2023-03-14T08:26:18;6.40;;;1.63;;
23300;SDS011;11819;51.394;12.340;2023-03-14T08:28:44;2.42;;;1.38;;
23300;SDS011;11819;51.394;12.340;2023-03-14T08:31:10;2.20;;;1.30;;
23300;SDS011;11819;51.394;12.340;2023-03-14T08:33:35;2.95;;;1.40;;
23300;SDS011;11819;51.394;12.340;2023-03-14T08:36:01;3.28;;;1.50;;
23300;SDS011;11819;51.394;12.340;2023-03-14T08:38:27;2.50;;;1.30;;
23300;SDS011;11819;51.394;12.340;2023-03-14T08:40:59;1.13;;;0.93;;
23300;SDS011;11819;51.394;12.340;2023-03-14T08:43:25;4.18;;;1.65;;
23300;SDS011;11819;51.394;12.340;2023-03-14T08:45:52;2.55;;;1.02;;
23300;SDS011;11819;51.394;12.340;2023-03-14T08:48:17;2.75;;;0.95;;
23300;SDS011;11819;51.394;12.340;2023-03-14T08:50:44;2.55;;;1.30;;
23300;SDS011;11819;51.394;12.340;2023-03-14T08:53:11;3.85;;;1.50;;
23300;SDS011;11819;51.394;12.340;2023-03-14T08:55:36;3.42;;;1.42;;
23300;SDS011;11819;51.394;12.340;2023-03-14T08:58:02;4.65;;;2.13;;
23300;SDS011;11819;51.394;12.340;2023-03-14T09:00:27;3.10;;;1.80;;
23300;SDS011;11819;51.394;12.340;2023-03-14T09:02:53;3.95;;;1.50;;
23300;SDS011;11819;51.394;12.340;2023-03-14T09:05:18;2.08;;;1.30;;
23300;SDS011;11819;51.394;12.340;2023-03-14T09:07:44;1.20;;;1.02;;
23300;SDS011;11819;51.394;12.340;2023-03-14T09:10:09;3.65;;;1.13;;
23300;SDS011;11819;51.394;12.340;2023-03-14T09:12:36;3.25;;;1.60;;
23300;SDS011;11819;51.394;12.340;2023-03-14T09:15:01;2.45;;;1.17;;
23300;SDS011;11819;51.394;12.340;2023-03-14T09:17:27;1.45;;;0.88;;
23300;SDS011;11819;51.394;12.340;2023-03-14T09:19:53;1.35;;;1.10;;
23300;SDS011;11819;51.394;12.340;2023-03-14T09:22:19;3.60;;;1.60;;
23300;SDS011;11819;51.394;12.340;2023-03-14T09:24:45;1.95;;;1.27;;
23300;SDS011;11819;51.394;12.340;2023-03-14T09:27:11;4.57;;;1.63;;
23300;SDS011;11819;51.394;12.340;2023-03-14T09:29:37;5.22;;;2.20;;
23300;SDS011;11819;51.394;12.340;2023-03-14T09:32:02;3.05;;;1.13;;
23300;SDS011;11819;51.394;12.340;2023-03-14T09:34:28;2.22;;;0.98;;
23300;SDS011;11819;51.394;12.340;2023-03-14T09:36:54;2.80;;;1.80;;
23300;SDS011;11819;51.394;12.340;2023-03-14T09:39:20;2.45;;;1.13;;
23300;SDS011;11819;51.394;12.340;2023-03-14T09:41:46;2.80;;;1.50;;
23300;SDS011;11819;51.394;12.340;2023-03-14T09:44:15;2.83;;;1.23;;
23300;SDS011;11819;51.394;12.340;2023-03-14T09:46:46;0.98;;;0.82;;
23300;SDS011;11819;51.394;12.340;2023-03-14T09:51:47;1.10;;;1.00;;
23300;SDS011;11819;51.394;12.340;2023-03-14T09:54:24;4.78;;;1.20;;
23300;SDS011;11819;51.394;12.340;2023-03-14T09:56:52;3.03;;;1.20;;
23300;SDS011;11819;51.394;12.340;2023-03-14T09:59:18;1.00;;;0.90;;
23300;SDS011;11819;51.394;12.340;2023-03-14T10:01:44;0.55;;;0.55;;
23300;SDS011;11819;51.394;12.340;2023-03-14T10:04:11;1.13;;;1.05;;
23300;SDS011;11819;51.394;12.340;2023-03-14T10:06:40;1.73;;;1.10;;
23300;SDS011;11819;51.394;12.340;2023-03-14T10:09:05;2.25;;;0.68;;
23300;SDS011;11819;51.394;12.340;2023-03-14T10:11:34;2.15;;;1.20;;
23300;SDS011;11819;51.394;12.340;2023-03-14T10:14:28;0.80;;;0.63;;
23300;SDS011;11819;51.394;12.340;2023-03-14T10:16:59;2.10;;;1.00;;
23300;SDS011;11819;51.394;12.340;2023-03-14T10:19:34;1.15;;;0.95;;
23300;SDS011;11819;51.394;12.340;2023-03-14T10:22:02;2.50;;;1.02;;
23300;SDS011;11819;51.394;12.340;2023-03-14T10:24:34;4.15;;;1.13;;
23300;SDS011;11819;51.394;12.340;2023-03-14T10:27:01;1.42;;;1.02;;
23300;SDS011;11819;51.394;12.340;2023-03-14T10:29:30;4.32;;;1.33;;
23300;SDS011;11819;51.394;12.340;2023-03-14T10:32:04;1.35;;;0.88;;
23300;SDS011;11819;51.394;12.340;2023-03-14T10:34:36;1.20;;;0.73;;
23300;SDS011;11819;51.394;12.340;2023-03-14T10:39:51;1.00;;;0.77;;
23300;SDS011;11819;51.394;12.340;2023-03-14T10:42:21;0.60;;;0.60;;
23300;SDS011;11819;51.394;12.340;2023-03-14T10:44:55;2.25;;;1.00;;
23300;SDS011;11819;51.394;12.340;2023-03-14T10:47:24;4.20;;;1.70;;
23300;SDS011;11819;51.394;12.340;2023-03-14T10:49:51;1.92;;;1.02;;
23300;SDS011;11819;51.394;12.340;2023-03-14T10:52:27;1.45;;;1.10;;
23300;SDS011;11819;51.394;12.340;2023-03-14T10:57:23;3.90;;;1.58;;
23300;SDS011;11819;51.394;12.340;2023-03-14T10:59:50;2.85;;;1.70;;
23300;SDS011;11819;51.394;12.340;2023-03-14T11:02:29;4.07;;;1.67;;
23300;SDS011;11819;51.394;12.340;2023-03-14T11:05:14;0.98;;;0.70;;
23300;SDS011;11819;51.394;12.340;2023-03-14T11:08:02;2.60;;;1.00;;
23300;SDS011;11819;51.394;12.340;2023-03-14T11:10:39;1.00;;;0.63;;
23300;SDS011;11819;51.394;12.340;2023-03-14T11:13:13;2.38;;;1.58;;
23300;SDS011;11819;51.394;12.340;2023-03-14T11:22:14;0.77;;;0.70;;
23300;SDS011;11819;51.394;12.340;2023-03-14T11:33:07;0.93;;;0.75;;
23300;SDS011;11819;51.394;12.340;2023-03-14T11:35:51;1.98;;;1.02;;
23300;SDS011;11819;51.394;12.340;2023-03-14T11:38:28;3.47;;;0.88;;
23300;SDS011;11819;51.394;12.340;2023-03-14T11:40:55;0.82;;;0.75;;
23300;SDS011;11819;51.394;12.340;2023-03-14T11:43:27;0.93;;;0.68;;
23300;SDS011;11819;51.394;12.340;2023-03-14T11:49:13;0.77;;;0.60;;
23300;SDS011;11819;51.394;12.340;2023-03-14T11:52:01;4.45;;;1.55;;
23300;SDS011;11819;51.394;12.340;2023-03-14T11:54:33;0.57;;;0.55;;
23300;SDS011;11819;51.394;12.340;2023-03-14T11:57:15;0.30;;;0.30;;
23300;SDS011;11819;51.394;12.340;2023-03-14T11:59:59;1.60;;;0.90;;
23300;SDS011;11819;51.394;12.340;2023-03-14T12:02:48;1.83;;;0.85;;
23300;SDS011;11819;51.394;12.340;2023-03-14T12:05:48;0.57;;;0.50;;
23300;SDS011;11819;51.394;12.340;2023-03-14T12:11:08;0.57;;;0.57;;
23300;SDS011;11819;51.394;12.340;2023-03-14T12:13:45;0.68;;;0.68;;
23300;SDS011;11819;51.394;12.340;2023-03-14T12:16:24;1.15;;;0.80;;
23300;SDS011;11819;51.394;12.340;2023-03-14T12:18:51;2.65;;;0.98;;
23300;SDS011;11819;51.394;12.340;2023-03-14T12:21:17;3.67;;;1.08;;
23300;SDS011;11819;51.394;12.340;2023-03-14T12:23:51;1.70;;;0.90;;
23300;SDS011;11819;51.394;12.340;2023-03-14T12:26:22;1.20;;;0.88;;
23300;SDS011;11819;51.394;12.340;2023-03-14T12:28:52;2.05;;;1.05;;
23300;SDS011;11819;51.394;12.340;2023-03-14T12:31:37;1.27;;;0.65;;
23300;SDS011;11819;51.394;12.340;2023-03-14T12:39:19;1.27;;;1.02;;
23300;SDS011;11819;51.394;12.340;2023-03-14T12:42:04;1.10;;;0.63;;
23300;SDS011;11819;51.394;12.340;2023-03-14T12:44:38;1.27;;;0.55;;
23300;SDS011;11819;51.394;12.340;2023-03-14T12:49:47;1.50;;;0.88;;
23300;SDS011;11819;51.394;12.340;2023-03-14T12:52:22;0.80;;;0.73;;
23300;SDS011;11819;51.394;12.340;2023-03-14T12:55:02;1.75;;;0.80;;
23300;SDS011;11819;51.394;12.340;2023-03-14T13:00:32;1.00;;;0.75;;
23300;SDS011;11819;51.394;12.340;2023-03-14T13:05:57;0.65;;;0.65;;
23300;SDS011;11819;51.394;12.340;2023-03-14T13:08:38;1.00;;;0.60;;
23300;SDS011;11819;51.394;12.340;2023-03-14T13:11:20;1.23;;;0.75;;
23300;SDS011;11819;51.394;12.340;2023-03-14T13:13:48;1.48;;;1.08;;
23300;SDS011;11819;51.394;12.340;2023-03-14T13:16:20;1.42;;;1.13;;
23300;SDS011;11819;51.394;12.340;2023-03-14T13:18:50;2.15;;;1.00;;
23300;SDS011;11819;51.394;12.340;2023-03-14T13:21:25;1.58;;;0.68;;
23300;SDS011;11819;51.394;12.340;2023-03-14T13:24:07;0.75;;;0.63;;
23300;SDS011;11819;51.394;12.340;2023-03-14T13:26:45;2.15;;;0.93;;
23300;SDS011;11819;51.394;12.340;2023-03-14T13:29:24;2.13;;;0.63;;
23300;SDS011;11819;51.394;12.340;2023-03-14T13:31:53;2.65;;;0.88;;
23300;SDS011;11819;51.394;12.340;2023-03-14T13:34:26;0.50;;;0.50;;
23300;SDS011;11819;51.394;12.340;2023-03-14T13:36:55;0.93;;;0.55;;
23300;SDS011;11819;51.394;12.340;2023-03-14T13:39:22;1.10;;;0.68;;
23300;SDS011;11819;51.394;12.340;2023-03-14T13:41:50;0.95;;;0.80;;
23300;SDS011;11819;51.394;12.340;2023-03-14T13:44:17;1.20;;;0.47;;
23300;SDS011;11819;51.394;12.340;2023-03-14T13:46:50;0.85;;;0.63;;
23300;SDS011;11819;51.394;12.340;2023-03-14T13:49:22;3.17;;;0.80;;
23300;SDS011;11819;51.394;12.340;2023-03-14T13:51:49;1.17;;;0.60;;
23300;SDS011;11819;51.394;12.340;2023-03-14T13:54:16;0.98;;;0.85;;
23300;SDS011;11819;51.394;12.340;2023-03-14T13:56:43;1.52;;;0.90;;
23300;SDS011;11819;51.394;12.340;2023-03-14T13:59:30;2.08;;;1.17;;
23300;SDS011;11819;51.394;12.340;2023-03-14T14:01:57;2.47;;;1.40;;
23300;SDS011;11819;51.394;12.340;2023-03-14T14:04:28;2.15;;;1.00;;
23300;SDS011;11819;51.394;12.340;2023-03-14T14:06:58;1.45;;;1.00;;
23300;SDS011;11819;51.394;12.340;2023-03-14T14:11:56;1.58;;;0.77;;
23300;SDS011;11819;51.394;12.340;2023-03-14T14:14:30;1.10;;;0.40;;
23300;SDS011;11819;51.394;12.340;2023-03-14T14:17:16;1.17;;;0.75;;
23300;SDS011;11819;51.394;12.340;2023-03-14T14:19:45;2.80;;;0.90;;
23300;SDS011;11819;51.394;12.340;2023-03-14T14:22:12;1.05;;;0.95;;
23300;SDS011;11819;51.394;12.340;2023-03-14T14:24:38;1.60;;;0.80;;
23300;SDS011;11819;51.394;12.340;2023-03-14T14:27:09;0.65;;;0.65;;
23300;SDS011;11819;51.394;12.340;2023-03-14T14:29:59;0.60;;;0.60;;
23300;SDS011;11819;51.394;12.340;2023-03-14T14:32:47;0.95;;;0.70;;
23300;SDS011;11819;51.394;12.340;2023-03-14T14:35:24;0.80;;;0.68;;
23300;SDS011;11819;51.394;12.340;2023-03-14T14:37:55;1.75;;;0.98;;
23300;SDS011;11819;51.394;12.340;2023-03-14T14:40:22;1.75;;;0.80;;
23300;SDS011;11819;51.394;12.340;2023-03-14T14:42:49;2.72;;;1.20;;
23300;SDS011;11819;51.394;12.340;2023-03-14T14:45:20;5.25;;;2.38;;
23300;SDS011;11819;51.394;12.340;2023-03-14T14:47:50;5.53;;;2.45;;
23300;SDS011;11819;51.394;12.340;2023-03-14T14:50:32;3.88;;;1.95;;
23300;SDS011;11819;51.394;12.340;2023-03-14T14:53:00;1.50;;;1.13;;
23300;SDS011;11819;51.394;12.340;2023-03-14T14:55:32;1.92;;;1.50;;
23300;SDS011;11819;51.394;12.340;2023-03-14T15:00:52;2.40;;;1.20;;
23300;SDS011;11819;51.394;12.340;2023-03-14T15:03:29;1.70;;;1.20;;
23300;SDS011;11819;51.394;12.340;2023-03-14T15:05:58;1.20;;;1.10;;
23300;SDS011;11819;51.394;12.340;2023-03-14T15:08:24;1.35;;;0.90;;
23300;SDS011;11819;51.394;12.340;2023-03-14T15:10:51;2.33;;;1.10;;
23300;SDS011;11819;51.394;12.340;2023-03-14T15:13:17;1.65;;;1.23;;
23300;SDS011;11819;51.394;12.340;2023-03-14T15:15:42;3.25;;;1.25;;
23300;SDS011;11819;51.394;12.340;2023-03-14T15:18:12;4.22;;;1.50;;
23300;SDS011;11819;51.394;12.340;2023-03-14T15:20:41;3.83;;;1.23;;
23300;SDS011;11819;51.394;12.340;2023-03-14T15:23:09;2.20;;;1.02;;
23300;SDS011;11819;51.394;12.340;2023-03-14T15:25:35;3.17;;;1.30;;
23300;SDS011;11819;51.394;12.340;2023-03-14T15:28:02;4.07;;;1.25;;
23300;SDS011;11819;51.394;12.340;2023-03-14T15:30:28;1.42;;;1.00;;
23300;SDS011;11819;51.394;12.340;2023-03-14T15:32:53;2.17;;;0.70;;
23300;SDS011;11819;51.394;12.340;2023-03-14T15:35:19;1.48;;;1.10;;
23300;SDS011;11819;51.394;12.340;2023-03-14T15:37:44;1.13;;;0.90;;
23300;SDS011;11819;51.394;12.340;2023-03-14T15:40:11;0.50;;;0.50;;
23300;SDS011;11819;51.394;12.340;2023-03-14T15:42:39;0.90;;;0.75;;
23300;SDS011;11819;51.394;12.340;2023-03-14T15:45:05;1.27;;;0.70;;
23300;SDS011;11819;51.394;12.340;2023-03-14T15:47:31;1.10;;;1.00;;